Decoded Metar for WBKS (SANDAKAN/KALIMAN in _UNIDENTIFIED) (IATA:N/A) | Meteo·Mobile Aviation Weather
aviador You're here:

WBKS Decoded Metar

SANDAKAN/KALIMAN in _UNIDENTIFIED
Report Time2018-10-23 09:00:00
UTC Time2018-10-23 09:23:09
Flight Rules vfr VFR
Wind050° at 05 kt
W.Decomp.*RWY 08: 4.3 kt HW 2.5 kt LCW
W.Rank050° ranks 8
Current wind is below 050° avg. (6.3)
Visibility9999 m
Phenomena:N/A
Clouds:Scattered 015 Hf
Broken 280 Hf
Expected CloudBase > 1,600 ft AGL from Temp-Dew spread
Ceiling28,000 ft
Temp30°C (ISA +15)
Dew Point26°C (79% RH)
Heat Index37.4°C
QNH1008 hPa
Density Alt2,379 ft
Elevation43 ft
Report Wrong Elevation
Raw Report
METAR WBKS 230900Z 05005KT 020V110 9999 SCT015 BKN280 30/26 Q1008=

Extra information for WBKS:More info

Metar Taf Metar & Taf Last 4 Metars F.Rules Stats Wind Profile Meteogram Temp Stats Airport Information Weather charts Add Link Nearby VenuesMetar ALERT Operation Metar Decoded Social comments